createdAt,value
2019-02-18T00:00:52.285Z,4.20
2019-02-18T00:03:23.003Z,4.20
2019-02-18T00:05:52.755Z,4.20
2019-02-18T00:08:23.224Z,4.20
2019-02-18T00:10:53.511Z,4.10
2019-02-18T00:13:24.010Z,4.10
2019-02-18T00:15:54.273Z,4.00
2019-02-18T00:18:24.811Z,4.00
2019-02-18T00:20:54.965Z,4.00
2019-02-18T00:23:25.582Z,3.90
2019-02-18T00:25:55.913Z,3.90
2019-02-18T00:28:26.440Z,4.00
2019-02-18T00:30:56.987Z,3.90
2019-02-18T00:33:27.250Z,3.80
2019-02-18T00:35:57.557Z,3.70
2019-02-18T00:38:27.775Z,3.50
2019-02-18T00:40:58.447Z,3.40
2019-02-18T00:43:28.740Z,3.30
2019-02-18T00:45:59.604Z,3.20
2019-02-18T00:48:30.252Z,3.10
2019-02-18T00:51:00.415Z,3.10
2019-02-18T00:53:31.047Z,3.00
2019-02-18T00:56:01.359Z,2.90
2019-02-18T00:58:32.077Z,2.90
2019-02-18T01:01:02.231Z,2.80
2019-02-18T01:03:32.721Z,2.90
2019-02-18T01:06:02.937Z,2.90
2019-02-18T01:08:33.163Z,2.80
2019-02-18T01:11:03.503Z,2.70
2019-02-18T01:13:34.147Z,2.60
2019-02-18T01:16:04.782Z,2.50
2019-02-18T01:18:35.296Z,2.40
2019-02-18T01:21:05.935Z,2.40
2019-02-18T01:23:35.936Z,2.40
2019-02-18T01:26:06.495Z,2.40
2019-02-18T01:28:36.971Z,2.40
2019-02-18T01:31:07.497Z,2.40
2019-02-18T01:33:37.770Z,2.40
2019-02-18T01:36:07.999Z,2.40
2019-02-18T01:38:38.299Z,2.30
2019-02-18T01:41:09.031Z,2.20
2019-02-18T01:43:39.652Z,2.20
2019-02-18T01:46:10.021Z,2.10
2019-02-18T01:48:39.923Z,2.10
2019-02-18T01:51:11.656Z,2.10
2019-02-18T01:53:42.222Z,2.10
2019-02-18T01:56:12.775Z,2.10
2019-02-18T01:58:43.301Z,2.00
2019-02-18T02:01:13.618Z,2.00
2019-02-18T02:03:43.856Z,2.00
2019-02-18T02:06:14.391Z,2.00
2019-02-18T02:08:44.852Z,2.00
2019-02-18T02:11:15.381Z,2.00
2019-02-18T02:13:45.969Z,2.00
2019-02-18T02:16:15.870Z,1.90
2019-02-18T02:18:46.525Z,1.90
2019-02-18T02:21:16.738Z,1.90
2019-02-18T02:23:46.967Z,1.90
2019-02-18T02:26:17.311Z,1.90
2019-02-18T02:28:47.852Z,1.80
2019-02-18T02:31:18.601Z,1.80
2019-02-18T02:33:49.135Z,1.80
2019-02-18T02:36:19.644Z,1.80
2019-02-18T02:38:50.121Z,1.70
2019-02-18T02:41:20.641Z,1.70
2019-02-18T02:43:51.300Z,1.70
2019-02-18T02:46:21.559Z,1.70
2019-02-18T02:48:52.117Z,1.70
2019-02-18T02:51:22.415Z,1.70
2019-02-18T02:53:52.903Z,1.70
2019-02-18T02:56:23.442Z,1.70
2019-02-18T02:58:54.122Z,1.70
2019-02-18T03:01:24.546Z,1.70
2019-02-18T03:03:55.170Z,1.60
2019-02-18T03:06:25.464Z,1.60
2019-02-18T03:08:56.037Z,1.50
2019-02-18T03:11:26.221Z,1.40
2019-02-18T03:13:56.793Z,1.30
2019-02-18T03:16:27.269Z,1.20
2019-02-18T03:18:57.685Z,1.20
2019-02-18T03:21:27.909Z,1.10
2019-02-18T03:23:58.741Z,1.10
2019-02-18T03:26:29.295Z,1.20
2019-02-18T03:29:41.438Z,1.20
2019-02-18T03:32:11.904Z,1.20
2019-02-18T03:34:46.794Z,1.30
2019-02-18T03:37:17.036Z,1.30
2019-02-18T03:39:47.697Z,1.20
2019-02-18T03:42:18.283Z,1.20
2019-02-18T03:44:48.545Z,1.10
2019-02-18T03:47:18.741Z,1.10
2019-02-18T03:49:48.857Z,1.10
2019-02-18T03:52:19.315Z,1.10
2019-02-18T03:54:49.817Z,1.10
2019-02-18T03:57:20.152Z,1.00
2019-02-18T03:59:50.804Z,1.10
2019-02-18T04:02:21.300Z,1.00
2019-02-18T04:04:51.493Z,1.00
2019-02-18T04:07:21.457Z,1.00
2019-02-18T04:09:51.427Z,1.00
2019-02-18T04:12:22.043Z,0.90
2019-02-18T04:14:52.227Z,1.00
2019-02-18T04:17:22.188Z,0.90
2019-02-18T04:19:52.719Z,0.90
2019-02-18T04:22:23.375Z,0.90
2019-02-18T04:24:54.051Z,0.90
2019-02-18T04:27:24.531Z,0.90
2019-02-18T04:29:54.812Z,0.80
2019-02-18T04:32:25.056Z,0.70
2019-02-18T04:34:55.614Z,0.70
2019-02-18T04:37:25.908Z,0.70
2019-02-18T04:39:56.221Z,0.70
2019-02-18T04:42:26.428Z,0.80
2019-02-18T04:44:56.673Z,0.80
2019-02-18T04:47:26.692Z,0.90
2019-02-18T04:49:57.273Z,0.90
2019-02-18T04:52:27.413Z,0.80
2019-02-18T04:54:58.093Z,0.80
2019-02-18T04:57:28.272Z,0.80
2019-02-18T04:59:58.475Z,0.90
2019-02-18T05:02:28.763Z,1.00
2019-02-18T05:04:59.323Z,1.10
2019-02-18T05:07:29.760Z,1.20
2019-02-18T05:10:00.387Z,1.20
2019-02-18T05:12:30.780Z,1.30
2019-02-18T05:15:00.675Z,1.40
2019-02-18T05:17:30.856Z,1.40
2019-02-18T05:20:01.360Z,1.40
2019-02-18T05:22:31.600Z,1.50
2019-02-18T05:25:01.922Z,1.50
2019-02-18T05:27:33.557Z,1.50
2019-02-18T05:30:04.106Z,1.60
2019-02-18T05:32:34.729Z,1.70
2019-02-18T05:35:05.331Z,1.60
2019-02-18T05:37:35.853Z,1.70
2019-02-18T05:40:06.332Z,1.70
2019-02-18T05:42:36.819Z,1.70
2019-02-18T05:45:07.004Z,1.50
2019-02-18T05:47:37.590Z,1.30
2019-02-18T05:50:08.306Z,1.10
2019-02-18T05:52:38.907Z,0.90
2019-02-18T05:55:09.264Z,0.70
2019-02-18T05:57:39.413Z,0.50
2019-02-18T06:00:10.502Z,0.40
2019-02-18T06:02:40.960Z,0.30
2019-02-18T06:05:11.333Z,0.20
2019-02-18T06:07:41.827Z,0.10
2019-02-18T06:10:11.800Z,0.00
2019-02-18T06:12:42.004Z,0.00
2019-02-18T06:15:12.606Z,0.00
2019-02-18T06:17:43.378Z,0.10
2019-02-18T06:20:13.951Z,0.10
2019-02-18T06:22:44.507Z,0.30
2019-02-18T06:25:15.117Z,0.30
2019-02-18T06:27:45.370Z,0.30
2019-02-18T06:30:15.588Z,0.30
2019-02-18T06:32:46.271Z,0.30
2019-02-18T06:35:16.491Z,0.40
2019-02-18T06:37:46.412Z,0.40
2019-02-18T06:40:16.928Z,0.50
2019-02-18T06:42:47.573Z,0.50
2019-02-18T06:45:36.831Z,0.60
2019-02-18T06:48:22.917Z,0.60
2019-02-18T06:50:53.122Z,0.60
2019-02-18T06:53:23.640Z,0.60
2019-02-18T06:55:54.319Z,0.60
2019-02-18T06:58:43.570Z,0.70
2019-02-18T07:01:31.297Z,0.70
2019-02-18T07:04:26.592Z,0.70
2019-02-18T07:07:03.171Z,0.80
2019-02-18T07:09:52.013Z,0.90
2019-02-18T07:12:26.255Z,1.00
2019-02-18T07:14:56.804Z,1.10
2019-02-18T07:17:27.242Z,1.10
2019-02-18T07:19:57.831Z,1.10
2019-02-18T07:22:28.311Z,1.10
2019-02-18T07:24:58.848Z,1.00
2019-02-18T07:27:29.506Z,1.00
2019-02-18T07:30:00.375Z,0.90
2019-02-18T07:32:30.948Z,0.80
2019-02-18T07:35:00.935Z,0.80
2019-02-18T07:37:31.496Z,0.80
2019-02-18T07:40:02.426Z,0.80
2019-02-18T07:42:33.071Z,0.70
2019-02-18T07:45:03.353Z,0.70
2019-02-18T07:47:33.691Z,0.80
2019-02-18T07:50:04.324Z,0.80
2019-02-18T07:52:34.517Z,0.80
2019-02-18T07:55:04.914Z,0.90
2019-02-18T07:57:35.294Z,0.90
2019-02-18T08:00:24.139Z,1.00
2019-02-18T08:02:54.898Z,1.10
2019-02-18T08:05:25.454Z,1.10
2019-02-18T08:07:55.624Z,1.20
2019-02-18T08:10:26.282Z,1.20
2019-02-18T08:12:56.542Z,1.30
2019-02-18T08:15:27.200Z,1.30
2019-02-18T08:17:57.893Z,1.40
2019-02-18T08:20:28.522Z,1.40
2019-02-18T08:22:59.070Z,1.40
2019-02-18T08:25:29.344Z,1.50
2019-02-18T08:28:00.006Z,1.60
2019-02-18T08:30:30.667Z,1.60
2019-02-18T08:33:01.209Z,1.70
2019-02-18T08:35:31.879Z,1.80
2019-02-18T08:38:02.448Z,1.90
2019-02-18T08:40:32.912Z,2.00
2019-02-18T08:43:03.499Z,2.10
2019-02-18T08:45:33.957Z,2.20
2019-02-18T08:48:04.100Z,2.20
2019-02-18T08:50:34.791Z,2.20
2019-02-18T08:53:04.966Z,2.20
2019-02-18T08:55:35.592Z,2.20
2019-02-18T08:58:06.159Z,2.20
2019-02-18T09:00:36.342Z,2.20
2019-02-18T09:03:06.944Z,2.30
2019-02-18T09:05:37.579Z,2.30
2019-02-18T09:08:08.144Z,2.30
2019-02-18T09:10:38.756Z,2.40
2019-02-18T09:13:09.058Z,2.50
2019-02-18T09:15:39.703Z,2.60
2019-02-18T09:18:10.318Z,2.70
2019-02-18T09:20:41.179Z,2.80
2019-02-18T09:23:26.119Z,2.90
2019-02-18T09:25:59.273Z,3.10
2019-02-18T09:28:29.620Z,3.20
2019-02-18T09:30:59.560Z,3.30
2019-02-18T09:33:29.478Z,3.40
2019-02-18T09:35:59.027Z,3.60
2019-02-18T09:38:29.324Z,3.70
2019-02-18T09:40:59.627Z,3.80
2019-02-18T09:43:30.280Z,3.90
2019-02-18T09:46:00.921Z,4.10
2019-02-18T09:48:31.071Z,4.20
2019-02-18T09:51:01.264Z,4.30
2019-02-18T09:53:31.460Z,4.50
2019-02-18T09:56:01.965Z,4.60
2019-02-18T09:58:32.233Z,4.60
2019-02-18T10:01:02.844Z,4.80
2019-02-18T10:03:33.093Z,4.90
2019-02-18T10:06:03.579Z,5.00
2019-02-18T10:08:34.242Z,5.00
2019-02-18T10:11:04.624Z,5.20
2019-02-18T10:13:35.092Z,5.30
2019-02-18T10:16:05.416Z,5.40
2019-02-18T10:18:35.801Z,5.50
2019-02-18T10:21:05.948Z,5.60
2019-02-18T10:23:36.538Z,5.60
2019-02-18T10:26:06.714Z,5.70
2019-02-18T10:28:37.088Z,5.80
2019-02-18T10:31:07.628Z,6.00
2019-02-18T10:33:37.872Z,6.00
2019-02-18T10:36:08.059Z,6.10
2019-02-18T10:38:40.190Z,6.20
2019-02-18T10:41:11.093Z,6.30
2019-02-18T10:43:41.566Z,6.40
2019-02-18T10:46:11.827Z,6.50
2019-02-18T10:48:42.468Z,6.60
2019-02-18T10:51:13.050Z,6.70
2019-02-18T10:53:43.320Z,6.80
2019-02-18T10:56:13.758Z,6.80
2019-02-18T10:58:44.260Z,6.90
2019-02-18T11:01:14.512Z,7.00
2019-02-18T11:03:45.170Z,7.20
2019-02-18T11:06:15.762Z,7.30
2019-02-18T11:08:45.690Z,7.50
2019-02-18T11:11:17.199Z,7.60
2019-02-18T11:13:47.576Z,7.70
2019-02-18T11:16:18.114Z,7.80
2019-02-18T11:18:48.744Z,7.90
2019-02-18T11:21:19.395Z,8.00
2019-02-18T11:23:49.662Z,8.20
2019-02-18T11:26:20.240Z,8.30
2019-02-18T11:28:50.870Z,8.40
2019-02-18T11:31:21.036Z,8.60
2019-02-18T11:33:51.539Z,8.70
2019-02-18T11:36:21.912Z,8.80
2019-02-18T11:38:52.176Z,9.00
2019-02-18T11:41:27.431Z,9.10
2019-02-18T11:43:55.066Z,9.30
2019-02-18T11:46:25.608Z,9.40
2019-02-18T11:48:55.819Z,9.50
2019-02-18T11:51:26.063Z,9.60
2019-02-18T11:53:56.649Z,9.80
2019-02-18T11:56:27.032Z,9.90
2019-02-18T11:58:57.644Z,10.00
2019-02-18T12:01:28.537Z,10.20
2019-02-18T12:03:58.996Z,10.30
2019-02-18T12:06:29.212Z,10.40
2019-02-18T12:08:59.824Z,10.50
2019-02-18T12:11:37.997Z,10.60
2019-02-18T12:14:01.997Z,10.70
2019-02-18T12:16:32.676Z,10.80
2019-02-18T12:19:02.960Z,11.00
2019-02-18T12:21:32.963Z,11.10
2019-02-18T12:24:03.148Z,11.20
2019-02-18T12:26:33.829Z,11.20
2019-02-18T12:29:04.493Z,11.30
2019-02-18T12:31:35.136Z,11.40
2019-02-18T12:34:05.640Z,11.60
2019-02-18T12:36:36.102Z,11.70
2019-02-18T12:39:12.838Z,11.70
2019-02-18T12:41:48.687Z,11.80
2019-02-18T12:44:15.334Z,11.90
2019-02-18T12:46:53.086Z,11.90
2019-02-18T12:49:23.676Z,12.00
2019-02-18T12:51:54.238Z,12.00
2019-02-18T12:54:24.762Z,12.10
2019-02-18T12:56:55.363Z,12.00
2019-02-18T12:59:25.685Z,12.00
2019-02-18T13:01:56.316Z,12.10
2019-02-18T13:04:26.604Z,12.00
2019-02-18T13:06:57.276Z,12.00
2019-02-18T13:09:27.895Z,12.00
2019-02-18T13:11:59.251Z,11.90
2019-02-18T13:14:30.043Z,12.00
2019-02-18T13:17:00.348Z,11.90
2019-02-18T13:19:31.052Z,11.90
2019-02-18T13:22:01.696Z,11.90
2019-02-18T13:24:31.893Z,12.00
2019-02-18T13:27:02.579Z,12.00
2019-02-18T13:29:33.048Z,12.10
2019-02-18T13:32:02.988Z,12.10
2019-02-18T13:34:33.256Z,12.10
2019-02-18T13:37:04.954Z,12.20
2019-02-18T13:39:35.428Z,12.20
2019-02-18T13:42:07.754Z,12.20
2019-02-18T13:44:38.266Z,12.30
2019-02-18T13:47:08.734Z,12.40
2019-02-18T13:49:39.512Z,12.40
2019-02-18T13:52:09.848Z,12.40
2019-02-18T13:54:40.457Z,12.50
2019-02-18T13:57:11.019Z,12.50
2019-02-18T13:59:41.932Z,12.50
2019-02-18T14:02:11.960Z,12.60
2019-02-18T14:04:42.011Z,12.60
2019-02-18T14:07:12.298Z,12.70
2019-02-18T14:09:43.065Z,12.80
2019-02-18T14:12:16.072Z,12.80
2019-02-18T14:14:45.821Z,12.90
2019-02-18T14:17:16.329Z,13.00
2019-02-18T14:19:48.073Z,13.00
2019-02-18T14:22:18.536Z,13.00
2019-02-18T14:24:48.900Z,13.00
2019-02-18T14:27:19.758Z,12.90
2019-02-18T14:29:50.514Z,12.70
2019-02-18T14:32:21.106Z,12.60
2019-02-18T14:34:51.702Z,12.50
2019-02-18T14:37:22.506Z,12.30
2019-02-18T14:39:52.703Z,12.20
2019-02-18T14:42:24.597Z,12.10
2019-02-18T14:44:55.532Z,11.90
2019-02-18T14:47:27.764Z,11.80
2019-02-18T14:49:58.612Z,11.60
2019-02-18T14:52:29.274Z,11.50
2019-02-18T14:54:59.929Z,11.40
2019-02-18T14:57:30.840Z,11.30
2019-02-18T15:00:01.504Z,11.20
2019-02-18T15:02:32.254Z,11.10
2019-02-18T15:05:03.108Z,11.00
2019-02-18T15:07:33.054Z,10.90
2019-02-18T15:10:04.097Z,10.80
2019-02-18T15:12:34.299Z,10.80
2019-02-18T15:15:04.678Z,10.80
2019-02-18T15:17:35.334Z,10.70
2019-02-18T15:20:05.638Z,10.70
2019-02-18T15:22:36.373Z,10.60
2019-02-18T15:25:07.036Z,10.60
2019-02-18T15:27:37.272Z,10.70
2019-02-18T15:30:08.044Z,10.70
2019-02-18T15:32:38.328Z,10.70
2019-02-18T15:35:09.060Z,10.70
2019-02-18T15:37:39.360Z,10.70
2019-02-18T15:40:10.200Z,10.60
2019-02-18T15:42:42.567Z,10.60
2019-02-18T15:45:12.948Z,10.60
2019-02-18T15:47:43.618Z,10.60
2019-02-18T15:50:15.007Z,10.50
2019-02-18T15:52:45.718Z,10.50
2019-02-18T15:55:16.188Z,10.40
2019-02-18T15:57:46.826Z,10.40
2019-02-18T16:00:21.741Z,10.30
2019-02-18T16:02:52.301Z,10.30
2019-02-18T16:05:23.055Z,10.20
2019-02-18T16:07:53.715Z,10.10
2019-02-18T16:10:24.027Z,10.00
2019-02-18T16:12:54.369Z,9.80
2019-02-18T16:15:25.260Z,9.70
2019-02-18T16:17:55.120Z,9.60
2019-02-18T16:20:25.532Z,9.50
2019-02-18T16:22:56.223Z,9.30
2019-02-18T16:25:26.918Z,9.20
2019-02-18T16:27:57.510Z,9.10
2019-02-18T16:30:28.163Z,9.00
2019-02-18T16:32:58.756Z,8.90
2019-02-18T16:35:29.250Z,8.80
2019-02-18T16:37:59.870Z,8.80
2019-02-18T16:40:30.628Z,8.70
2019-02-18T16:43:00.952Z,8.70
2019-02-18T16:45:31.531Z,8.60
2019-02-18T16:48:02.637Z,8.60
2019-02-18T16:50:33.529Z,8.50
2019-02-18T16:53:03.737Z,8.40
2019-02-18T16:55:34.430Z,8.40
2019-02-18T16:58:04.759Z,8.40
2019-02-18T17:00:35.268Z,8.40
2019-02-18T17:03:06.036Z,8.40
2019-02-18T17:05:36.603Z,8.40
2019-02-18T17:08:07.227Z,8.40
2019-02-18T17:10:37.432Z,8.50
2019-02-18T17:13:08.626Z,8.50
2019-02-18T17:15:38.788Z,8.50
2019-02-18T17:18:09.440Z,8.40
2019-02-18T17:20:40.016Z,8.40
2019-02-18T17:23:10.692Z,8.40
2019-02-18T17:25:41.016Z,8.40
2019-02-18T17:28:10.945Z,8.40
2019-02-18T17:30:41.616Z,8.40
2019-02-18T17:33:12.006Z,8.40
2019-02-18T17:35:42.499Z,8.40
2019-02-18T17:38:13.080Z,8.20
2019-02-18T17:40:43.562Z,8.20
2019-02-18T17:43:16.446Z,8.10
2019-02-18T17:45:46.128Z,8.10
2019-02-18T17:48:16.473Z,8.10
2019-02-18T17:50:48.600Z,8.00
2019-02-18T17:53:18.918Z,8.00
2019-02-18T17:55:49.490Z,8.00
2019-02-18T17:58:20.202Z,7.90
2019-02-18T18:00:53.642Z,7.90
2019-02-18T18:03:24.522Z,7.80
2019-02-18T18:05:55.016Z,7.70
2019-02-18T18:08:25.531Z,7.60
2019-02-18T18:10:55.924Z,7.50
2019-02-18T18:13:26.486Z,7.50
2019-02-18T18:15:57.135Z,7.40
2019-02-18T18:18:27.820Z,7.40
2019-02-18T18:20:57.426Z,7.30
2019-02-18T18:23:27.758Z,7.30
2019-02-18T18:25:58.112Z,7.20
2019-02-18T18:28:28.718Z,7.10
2019-02-18T18:30:59.711Z,7.10
2019-02-18T18:33:30.391Z,7.00
2019-02-18T18:36:00.944Z,7.00
2019-02-18T18:38:30.769Z,6.90
2019-02-18T18:41:01.486Z,6.90
2019-02-18T18:43:34.071Z,6.90
2019-02-18T18:46:04.288Z,6.90
2019-02-18T18:48:34.890Z,6.80
2019-02-18T18:51:06.900Z,6.80
2019-02-18T18:53:37.110Z,6.80
2019-02-18T18:56:07.693Z,6.90
2019-02-18T18:58:37.665Z,6.80
2019-02-18T19:01:08.340Z,6.80
2019-02-18T19:03:38.562Z,6.70
2019-02-18T19:06:09.274Z,6.70
2019-02-18T19:08:38.769Z,6.70
2019-02-18T19:11:08.683Z,6.60
2019-02-18T19:13:42.136Z,6.50
2019-02-18T19:16:11.328Z,6.40
2019-02-18T19:18:42.473Z,6.30
2019-02-18T19:21:13.098Z,6.30
2019-02-18T19:23:43.754Z,6.20
2019-02-18T19:26:14.122Z,6.20
2019-02-18T19:28:44.240Z,6.20
2019-02-18T19:31:14.854Z,6.20
2019-02-18T19:33:45.106Z,6.30
2019-02-18T19:36:15.633Z,6.30
2019-02-18T19:38:46.228Z,6.40
2019-02-18T19:41:16.450Z,6.40
2019-02-18T19:43:50.301Z,6.40
2019-02-18T19:46:19.258Z,6.40
2019-02-18T19:48:50.228Z,6.30
2019-02-18T19:51:20.457Z,6.20
2019-02-18T19:53:51.134Z,6.10
2019-02-18T19:56:21.752Z,6.00
2019-02-18T19:58:52.324Z,5.90
2019-02-18T20:01:22.994Z,5.80
2019-02-18T20:03:53.230Z,5.80
2019-02-18T20:06:23.520Z,5.70
2019-02-18T20:08:53.772Z,5.60
2019-02-18T20:11:24.366Z,5.60
2019-02-18T20:13:58.960Z,5.50
2019-02-18T20:16:27.182Z,5.50
2019-02-18T20:18:57.266Z,5.40
2019-02-18T20:21:27.562Z,5.40
2019-02-18T20:23:57.892Z,5.30
2019-02-18T20:26:28.227Z,5.30
2019-02-18T20:28:59.214Z,5.30
2019-02-18T20:31:29.840Z,5.20
2019-02-18T20:34:00.448Z,5.30
2019-02-18T20:36:31.065Z,5.30
2019-02-18T20:39:01.816Z,5.30
2019-02-18T20:41:32.591Z,5.40
2019-02-18T20:44:07.432Z,5.40
2019-02-18T20:46:54.282Z,5.40
2019-02-18T20:49:24.537Z,5.40
2019-02-18T20:51:55.354Z,5.30
2019-02-18T20:54:25.712Z,5.20
2019-02-18T20:56:56.260Z,5.10
2019-02-18T20:59:26.506Z,5.10
2019-02-18T21:01:57.288Z,5.00
2019-02-18T21:04:27.904Z,5.00
2019-02-18T21:06:58.569Z,5.00
2019-02-18T21:09:28.672Z,5.10
2019-02-18T21:11:58.547Z,5.10
2019-02-18T21:14:29.058Z,5.10
2019-02-18T21:16:59.644Z,5.20
2019-02-18T21:19:30.196Z,5.10
2019-02-18T21:22:00.390Z,5.10
2019-02-18T21:24:30.724Z,5.10
2019-02-18T21:27:01.282Z,5.10
2019-02-18T21:29:31.694Z,5.20
2019-02-18T21:32:02.524Z,5.10
2019-02-18T21:34:33.060Z,5.00
2019-02-18T21:37:03.538Z,5.00
2019-02-18T21:39:33.796Z,4.90
2019-02-18T21:42:04.146Z,4.90
2019-02-18T21:44:34.792Z,4.90
2019-02-18T21:47:05.100Z,4.80
2019-02-18T21:49:35.618Z,4.70
2019-02-18T21:52:06.244Z,4.70
2019-02-18T21:54:36.814Z,4.70
2019-02-18T21:57:07.016Z,4.60
2019-02-18T21:59:37.244Z,4.60
2019-02-18T22:02:07.714Z,4.60
2019-02-18T22:04:38.264Z,4.50
2019-02-18T22:07:08.405Z,4.40
2019-02-18T22:09:39.044Z,4.30
2019-02-18T22:12:09.949Z,4.30
2019-02-18T22:14:40.666Z,4.20
2019-02-18T22:17:10.830Z,4.20
2019-02-18T22:19:41.456Z,4.20
2019-02-18T22:22:11.828Z,4.10
2019-02-18T22:24:42.470Z,4.10
2019-02-18T22:27:13.288Z,4.10
2019-02-18T22:29:43.900Z,4.00
2019-02-18T22:32:14.138Z,3.90
2019-02-18T22:34:44.371Z,3.90
2019-02-18T22:37:15.034Z,3.90
2019-02-18T22:39:45.248Z,4.00
2019-02-18T22:42:15.466Z,3.90
2019-02-18T22:44:45.838Z,3.90
2019-02-18T22:47:15.972Z,3.90
2019-02-18T22:49:46.262Z,4.00
2019-02-18T22:52:16.078Z,4.10
2019-02-18T22:54:46.726Z,4.20
2019-02-18T22:57:17.348Z,4.20
2019-02-18T22:59:48.007Z,4.10
2019-02-18T23:02:18.394Z,4.10
2019-02-18T23:04:48.742Z,4.00
2019-02-18T23:07:19.186Z,3.90
2019-02-18T23:09:50.094Z,3.80
2019-02-18T23:12:20.686Z,3.70
2019-02-18T23:14:51.260Z,3.60
2019-02-18T23:17:21.828Z,3.60
2019-02-18T23:19:52.350Z,3.50
2019-02-18T23:22:22.851Z,3.50
2019-02-18T23:24:53.758Z,3.40
2019-02-18T23:27:24.326Z,3.30
2019-02-18T23:29:54.814Z,3.20
2019-02-18T23:32:25.067Z,3.10
2019-02-18T23:34:55.611Z,3.10
2019-02-18T23:37:26.002Z,3.10
2019-02-18T23:39:56.226Z,3.10
2019-02-18T23:42:26.756Z,3.00
2019-02-18T23:44:59.257Z,3.00
2019-02-18T23:47:29.198Z,3.00
2019-02-18T23:49:59.643Z,3.10
2019-02-18T23:52:30.092Z,3.10
2019-02-18T23:55:00.640Z,3.20
2019-02-18T23:57:42.288Z,3.10
